createdAt,value
2023-03-31T04:00:29.569Z,89.11
2023-03-31T04:01:30.559Z,89.21
2023-03-31T04:02:30.604Z,89.11
2023-03-31T04:03:30.538Z,89.21
2023-03-31T04:04:30.493Z,89.11
2023-03-31T04:05:30.534Z,89.11
2023-03-31T04:06:30.470Z,89.21
2023-03-31T04:07:30.484Z,89.21
2023-03-31T04:08:30.466Z,89.42
2023-03-31T04:09:30.441Z,89.31
2023-03-31T04:10:30.446Z,89.31
2023-03-31T04:11:30.468Z,89.31
2023-03-31T04:12:30.408Z,89.31
2023-03-31T04:13:30.424Z,89.42
2023-03-31T04:14:30.389Z,89.42
2023-03-31T04:15:30.333Z,89.42
2023-03-31T04:16:30.366Z,89.42
2023-03-31T04:17:30.331Z,89.42
2023-03-31T04:18:30.295Z,89.42
2023-03-31T04:19:30.276Z,89.51
2023-03-31T04:20:30.334Z,89.51
2023-03-31T04:21:30.257Z,89.51
2023-03-31T04:22:30.335Z,89.62
2023-03-31T04:23:30.327Z,89.31
2023-03-31T04:24:30.330Z,89.42
2023-03-31T04:25:30.212Z,89.51
2023-03-31T04:26:30.299Z,89.42
2023-03-31T04:27:30.244Z,89.51
2023-03-31T04:28:30.202Z,89.51
2023-03-31T04:29:30.180Z,89.62
2023-03-31T04:30:30.168Z,89.76
2023-03-31T04:31:30.169Z,89.66
2023-03-31T04:32:30.153Z,89.76
2023-03-31T04:33:30.133Z,89.72
2023-03-31T04:34:30.205Z,89.87
2023-03-31T04:35:30.171Z,89.76
2023-03-31T04:36:30.097Z,89.72
2023-03-31T04:37:30.064Z,89.76
2023-03-31T04:38:30.064Z,89.72
2023-03-31T04:39:30.177Z,89.66
2023-03-31T04:40:30.063Z,89.66
2023-03-31T04:41:30.103Z,89.76
2023-03-31T04:42:30.050Z,89.76
2023-03-31T04:43:30.013Z,89.87
2023-03-31T04:44:30.024Z,89.76
2023-03-31T04:45:30.017Z,89.76
2023-03-31T04:46:30.006Z,89.66
2023-03-31T04:47:30.023Z,89.56
2023-03-31T04:48:29.985Z,89.66
2023-03-31T04:49:29.954Z,89.76
2023-03-31T04:50:29.951Z,89.87
2023-03-31T04:51:30.146Z,89.66
2023-03-31T04:52:29.904Z,89.87
2023-03-31T04:53:29.998Z,89.66
2023-03-31T04:54:29.904Z,89.76
2023-03-31T04:55:29.910Z,89.56
2023-03-31T04:56:29.868Z,89.56
2023-03-31T04:57:29.947Z,89.45
2023-03-31T04:58:29.850Z,89.45
2023-03-31T04:59:29.837Z,89.45
2023-03-31T05:00:29.890Z,89.31
2023-03-31T05:01:29.817Z,89.25
2023-03-31T05:02:29.892Z,89.36
2023-03-31T05:03:29.889Z,89.36
2023-03-31T05:04:29.791Z,89.36
2023-03-31T05:05:29.771Z,89.45
2023-03-31T05:06:29.765Z,89.36
2023-03-31T05:07:29.749Z,89.45
2023-03-31T05:08:29.764Z,89.45
2023-03-31T05:09:29.740Z,89.56
2023-03-31T05:10:29.742Z,89.36
2023-03-31T05:11:29.714Z,89.45
2023-03-31T05:12:29.708Z,89.45
2023-03-31T05:13:29.681Z,89.25
2023-03-31T05:14:29.686Z,89.36
2023-03-31T05:15:29.664Z,89.45
2023-03-31T05:16:29.698Z,89.60
2023-03-31T05:17:29.706Z,89.56
2023-03-31T05:18:29.641Z,89.66
2023-03-31T05:19:29.644Z,89.66
2023-03-31T05:20:29.604Z,89.56
2023-03-31T05:21:29.603Z,89.56
2023-03-31T05:22:29.612Z,89.66
2023-03-31T05:23:29.598Z,89.36
2023-03-31T05:24:29.624Z,89.56
2023-03-31T05:25:29.593Z,89.70
2023-03-31T05:26:29.587Z,89.36
2023-03-31T05:27:29.530Z,89.50
2023-03-31T05:28:31.229Z,89.56
2023-03-31T05:29:29.577Z,89.56
2023-03-31T05:30:29.515Z,89.50
2023-03-31T05:31:29.575Z,89.50
2023-03-31T05:32:29.522Z,89.60
2023-03-31T05:33:29.465Z,89.70
2023-03-31T05:34:29.493Z,89.60
2023-03-31T05:35:29.471Z,89.56
2023-03-31T05:36:29.487Z,89.36
2023-03-31T05:37:29.424Z,89.36
2023-03-31T05:38:29.439Z,89.36
2023-03-31T05:39:29.397Z,89.25
2023-03-31T05:40:29.420Z,89.25
2023-03-31T05:41:29.379Z,88.84
2023-03-31T05:42:29.374Z,88.64
2023-03-31T05:43:29.366Z,88.53
2023-03-31T05:44:29.345Z,88.74
2023-03-31T05:45:29.446Z,88.43
2023-03-31T05:46:29.456Z,88.33
2023-03-31T05:47:29.338Z,88.39
2023-03-31T05:48:29.313Z,88.23
2023-03-31T05:49:30.183Z,88.18
2023-03-31T05:50:29.677Z,88.18
2023-03-31T05:51:29.271Z,88.08
2023-03-31T05:52:29.288Z,87.98
2023-03-31T05:53:29.350Z,87.88
2023-03-31T05:54:29.227Z,87.88
2023-03-31T05:55:29.626Z,87.98
2023-03-31T05:56:29.206Z,87.77
2023-03-31T05:57:29.284Z,87.77
2023-03-31T05:58:29.255Z,87.67
2023-03-31T05:59:29.223Z,87.57
2023-03-31T06:00:29.210Z,87.37
2023-03-31T06:01:29.187Z,87.67
2023-03-31T06:02:29.247Z,87.67
2023-03-31T06:03:29.177Z,87.77
2023-03-31T06:04:29.196Z,87.77
2023-03-31T06:05:29.137Z,87.57
2023-03-31T06:06:29.113Z,87.57
2023-03-31T06:07:29.120Z,87.47
2023-03-31T06:08:29.089Z,87.77
2023-03-31T06:09:29.100Z,87.98
2023-03-31T06:10:29.146Z,87.88
2023-03-31T06:11:29.063Z,87.88
2023-03-31T06:12:29.042Z,87.98
2023-03-31T06:13:29.070Z,87.98
2023-03-31T06:14:29.063Z,87.88
2023-03-31T06:15:29.058Z,87.77
2023-03-31T06:16:29.262Z,87.57
2023-03-31T06:17:29.011Z,87.12
2023-03-31T06:18:28.971Z,87.12
2023-03-31T06:19:28.976Z,87.02
2023-03-31T06:20:28.956Z,86.26
2023-03-31T06:21:28.951Z,85.61
2023-03-31T06:22:28.944Z,85.20
2023-03-31T06:23:28.898Z,84.03
2023-03-31T06:24:28.907Z,83.62
2023-03-31T06:25:34.521Z,83.42
2023-03-31T06:26:28.917Z,83.18
2023-03-31T06:27:28.907Z,83.32
2023-03-31T06:28:28.905Z,83.32
2023-03-31T06:29:28.865Z,83.83
2023-03-31T06:30:28.846Z,83.62
2023-03-31T06:31:28.881Z,83.83
2023-03-31T06:32:28.864Z,84.03
2023-03-31T06:33:28.846Z,83.38
2023-03-31T06:34:28.801Z,82.56
2023-03-31T06:35:28.827Z,82.67
2023-03-31T06:36:28.818Z,82.22
2023-03-31T06:37:28.774Z,81.51
2023-03-31T06:38:28.908Z,81.20
2023-03-31T06:39:28.768Z,80.65
2023-03-31T06:40:28.733Z,80.24
2023-03-31T06:41:28.737Z,81.23
2023-03-31T06:42:28.728Z,79.80
2023-03-31T06:43:28.730Z,78.84
2023-03-31T06:44:28.789Z,78.12
2023-03-31T06:45:28.699Z,78.02
2023-03-31T06:46:28.781Z,77.58
2023-03-31T06:47:28.667Z,78.19
2023-03-31T06:48:28.695Z,76.08
2023-03-31T06:49:28.633Z,75.98
2023-03-31T06:50:28.627Z,76.53
2023-03-31T06:51:30.623Z,76.76
2023-03-31T06:52:28.617Z,78.02
2023-03-31T06:53:28.589Z,78.53
2023-03-31T06:54:28.596Z,78.27
2023-03-31T06:55:28.561Z,79.08
2023-03-31T06:56:28.652Z,79.08
2023-03-31T06:57:28.609Z,78.64
2023-03-31T06:58:31.165Z,77.89
2023-03-31T06:59:28.571Z,77.27
2023-03-31T07:00:28.500Z,77.37
2023-03-31T07:01:28.541Z,77.03
2023-03-31T07:02:28.746Z,75.78
2023-03-31T07:03:28.627Z,75.57
2023-03-31T07:04:28.505Z,76.18
2023-03-31T07:05:28.476Z,75.47
2023-03-31T07:06:28.446Z,75.06
2023-03-31T07:07:28.477Z,75.06
2023-03-31T07:08:28.425Z,75.37
2023-03-31T07:09:28.464Z,76.56
2023-03-31T07:10:28.415Z,77.37
2023-03-31T07:11:28.402Z,77.48
2023-03-31T07:12:28.625Z,77.51
2023-03-31T07:13:28.431Z,77.62
2023-03-31T07:14:28.376Z,77.27
2023-03-31T07:15:28.424Z,76.56
2023-03-31T07:16:28.401Z,76.56
2023-03-31T07:17:28.369Z,76.46
2023-03-31T07:18:28.310Z,76.76
2023-03-31T07:19:28.311Z,76.97
2023-03-31T07:20:28.311Z,77.51
2023-03-31T07:21:28.301Z,77.78
2023-03-31T07:22:28.285Z,76.97
2023-03-31T07:23:28.268Z,76.83
2023-03-31T07:24:28.250Z,76.87
2023-03-31T07:25:28.273Z,76.53
2023-03-31T07:26:28.255Z,76.32
2023-03-31T07:27:28.251Z,76.22
2023-03-31T07:28:28.238Z,75.88
2023-03-31T07:29:28.251Z,74.93
2023-03-31T07:30:28.227Z,74.28
2023-03-31T07:31:28.174Z,73.77
2023-03-31T07:32:29.193Z,74.41
2023-03-31T07:33:28.146Z,74.11
2023-03-31T07:34:28.149Z,73.97
2023-03-31T07:35:28.289Z,73.57
2023-03-31T07:36:28.182Z,73.77
2023-03-31T07:37:28.142Z,73.57
2023-03-31T07:38:28.072Z,73.47
2023-03-31T07:39:28.079Z,74.01
2023-03-31T07:40:28.069Z,74.41
2023-03-31T07:41:28.064Z,74.62
2023-03-31T07:42:28.087Z,74.32
2023-03-31T07:43:28.048Z,73.26
2023-03-31T07:44:28.020Z,73.06
2023-03-31T07:45:28.015Z,73.57
2023-03-31T07:46:28.021Z,73.06
2023-03-31T07:47:28.064Z,72.92
2023-03-31T07:48:28.015Z,72.34
2023-03-31T07:49:27.969Z,71.53
2023-03-31T07:50:27.952Z,70.72
2023-03-31T07:51:27.980Z,71.16
2023-03-31T07:52:27.937Z,70.65
2023-03-31T07:53:27.933Z,70.96
2023-03-31T07:54:27.894Z,71.47
2023-03-31T07:55:27.893Z,71.26
2023-03-31T07:56:27.936Z,70.82
2023-03-31T07:57:27.920Z,70.52
2023-03-31T07:58:27.861Z,70.31
2023-03-31T07:59:27.841Z,70.21
2023-03-31T08:00:27.856Z,70.62
2023-03-31T08:01:27.947Z,69.87
2023-03-31T08:02:28.049Z,69.67
2023-03-31T08:03:27.861Z,69.17
2023-03-31T08:04:27.899Z,69.57
2023-03-31T08:05:27.805Z,69.87
2023-03-31T08:06:27.771Z,69.70
2023-03-31T08:07:27.775Z,70.86
2023-03-31T08:08:27.793Z,71.80
2023-03-31T08:09:27.798Z,72.11
2023-03-31T08:10:27.740Z,72.75
2023-03-31T08:11:27.744Z,72.82
2023-03-31T08:12:27.702Z,72.55
2023-03-31T08:13:27.774Z,73.16
2023-03-31T08:14:38.300Z,73.36
2023-03-31T08:15:27.688Z,72.41
2023-03-31T08:16:27.758Z,71.87
2023-03-31T08:17:27.723Z,72.08
2023-03-31T08:18:27.690Z,72.17
2023-03-31T08:19:27.738Z,71.26
2023-03-31T08:20:27.649Z,71.26
2023-03-31T08:21:27.612Z,71.36
2023-03-31T08:22:27.580Z,71.80
2023-03-31T08:23:27.575Z,71.87
2023-03-31T08:24:27.596Z,71.67
2023-03-31T08:25:27.575Z,70.96
2023-03-31T08:26:27.549Z,70.92
2023-03-31T08:27:27.551Z,71.03
2023-03-31T08:28:27.524Z,70.92
2023-03-31T08:29:27.537Z,70.62
2023-03-31T08:30:27.540Z,70.62
2023-03-31T08:31:27.681Z,70.92
2023-03-31T08:32:27.493Z,70.82
2023-03-31T08:33:27.491Z,70.21
2023-03-31T08:34:27.493Z,70.75
2023-03-31T08:35:27.469Z,70.42
2023-03-31T08:36:27.524Z,70.28
2023-03-31T08:37:27.434Z,69.78
2023-03-31T08:38:27.445Z,69.57
2023-03-31T08:39:27.490Z,68.93
2023-03-31T08:40:27.433Z,68.93
2023-03-31T08:41:28.152Z,68.52
2023-03-31T08:42:27.376Z,69.06
2023-03-31T08:43:27.386Z,69.57
2023-03-31T08:44:27.393Z,70.11
2023-03-31T08:45:27.371Z,70.01
2023-03-31T08:46:27.415Z,70.18
2023-03-31T08:47:27.410Z,70.11
2023-03-31T08:48:27.321Z,70.52
2023-03-31T08:49:27.348Z,70.82
2023-03-31T08:50:27.302Z,71.26
2023-03-31T08:51:27.276Z,71.67
2023-03-31T08:52:27.249Z,71.97
2023-03-31T08:53:27.259Z,72.08
2023-03-31T08:54:27.230Z,72.17
2023-03-31T08:55:27.267Z,72.48
2023-03-31T08:56:27.225Z,72.28
2023-03-31T08:57:27.355Z,71.77
2023-03-31T08:58:28.146Z,71.87
2023-03-31T08:59:27.236Z,72.38
2023-03-31T09:00:27.252Z,72.58
2023-03-31T09:01:27.195Z,72.08
2023-03-31T09:02:27.297Z,72.17
2023-03-31T09:03:27.284Z,72.31
2023-03-31T09:04:27.169Z,72.38
2023-03-31T09:05:27.132Z,72.31
2023-03-31T09:06:27.104Z,72.11
2023-03-31T09:07:27.130Z,72.11
2023-03-31T09:08:27.087Z,72.21
2023-03-31T09:09:27.120Z,71.97
2023-03-31T09:10:27.078Z,71.77
2023-03-31T09:11:27.072Z,71.87
2023-03-31T09:12:27.041Z,71.12
2023-03-31T09:13:27.030Z,70.92
2023-03-31T09:14:27.030Z,70.28
2023-03-31T09:15:27.036Z,69.30
2023-03-31T09:16:27.111Z,68.26
2023-03-31T09:17:27.017Z,66.97
2023-03-31T09:18:27.141Z,66.97
2023-03-31T09:19:26.968Z,66.54
2023-03-31T09:20:26.984Z,65.70
2023-03-31T09:21:26.934Z,64.76
2023-03-31T09:22:26.945Z,64.04
2023-03-31T09:23:26.933Z,63.95
2023-03-31T09:24:26.973Z,63.57
2023-03-31T09:25:26.911Z,64.92
2023-03-31T09:26:26.925Z,65.12
2023-03-31T09:27:26.877Z,64.11
2023-03-31T09:28:26.913Z,65.48
2023-03-31T09:29:26.911Z,67.14
2023-03-31T09:30:26.846Z,67.03
2023-03-31T09:31:26.950Z,67.24
2023-03-31T09:32:26.844Z,67.78
2023-03-31T09:33:26.809Z,68.08
2023-03-31T09:34:26.801Z,68.01
2023-03-31T09:35:26.938Z,69.03
2023-03-31T09:36:26.813Z,69.13
2023-03-31T09:37:26.830Z,69.23
2023-03-31T09:38:26.758Z,69.34
2023-03-31T09:39:26.749Z,69.34
2023-03-31T09:40:26.769Z,68.32
2023-03-31T09:41:26.769Z,68.96
2023-03-31T09:42:26.801Z,69.67
2023-03-31T09:43:26.719Z,69.06
2023-03-31T09:44:26.727Z,69.47
2023-03-31T09:45:26.704Z,69.67
2023-03-31T09:46:26.753Z,69.98
2023-03-31T09:47:26.680Z,69.98
2023-03-31T09:48:26.679Z,69.67
2023-03-31T09:49:26.657Z,69.84
2023-03-31T09:50:26.658Z,69.23
2023-03-31T09:51:26.638Z,67.51
2023-03-31T09:52:26.621Z,65.83
2023-03-31T09:53:26.594Z,63.87
2023-03-31T09:54:26.576Z,63.67
2023-03-31T09:55:39.074Z,62.76
2023-03-31T09:56:26.592Z,63.43
2023-03-31T09:57:26.776Z,64.98
2023-03-31T09:58:26.522Z,65.18
2023-03-31T09:59:26.542Z,66.13
2023-03-31T10:00:26.517Z,66.50
2023-03-31T10:01:26.527Z,66.09
2023-03-31T10:02:26.685Z,66.13
2023-03-31T10:03:26.509Z,66.86
2023-03-31T10:04:26.578Z,67.61
2023-03-31T10:05:26.493Z,68.52
2023-03-31T10:06:26.467Z,68.52
2023-03-31T10:07:26.435Z,68.83
2023-03-31T10:08:26.409Z,69.06
2023-03-31T10:09:26.427Z,69.67
2023-03-31T10:10:26.396Z,69.98
2023-03-31T10:11:26.396Z,70.08
2023-03-31T10:12:26.380Z,70.38
2023-03-31T10:13:26.367Z,70.72
2023-03-31T10:14:26.351Z,70.92
2023-03-31T10:15:26.357Z,71.09
2023-03-31T10:16:26.418Z,71.12
2023-03-31T10:17:26.448Z,71.33
2023-03-31T10:18:26.355Z,71.73
2023-03-31T10:19:26.306Z,71.64
2023-03-31T10:20:26.280Z,71.64
2023-03-31T10:21:26.703Z,71.73
2023-03-31T10:22:26.296Z,72.34
2023-03-31T10:23:26.249Z,72.55
2023-03-31T10:24:26.253Z,72.52
2023-03-31T10:25:26.240Z,72.65
2023-03-31T10:26:26.223Z,72.82
2023-03-31T10:27:26.226Z,72.52
2023-03-31T10:28:26.201Z,72.17
2023-03-31T10:29:26.197Z,72.17
2023-03-31T10:30:26.206Z,72.08
2023-03-31T10:31:26.222Z,71.88
2023-03-31T10:32:26.241Z,71.06
2023-03-31T10:33:26.164Z,70.86
2023-03-31T10:34:26.131Z,70.04
2023-03-31T10:35:26.116Z,70.45
2023-03-31T10:36:26.106Z,70.15
2023-03-31T10:37:26.133Z,69.84
2023-03-31T10:38:26.083Z,70.25
2023-03-31T10:39:26.094Z,70.08
2023-03-31T10:40:26.044Z,69.98
2023-03-31T10:41:26.088Z,70.08
2023-03-31T10:42:26.088Z,70.08
2023-03-31T10:43:26.061Z,70.18
2023-03-31T10:44:26.010Z,70.68
2023-03-31T10:45:36.637Z,70.18
2023-03-31T10:46:26.232Z,70.68
2023-03-31T10:47:26.061Z,70.79
2023-03-31T10:48:26.005Z,71.23
2023-03-31T10:49:25.995Z,71.94
2023-03-31T10:50:25.956Z,74.11
2023-03-31T10:51:25.976Z,76.25
2023-03-31T10:52:25.971Z,77.81
2023-03-31T10:53:25.915Z,79.77
2023-03-31T10:54:25.929Z,80.90
2023-03-31T10:55:25.941Z,82.01
2023-03-31T10:56:25.871Z,83.44
2023-03-31T10:57:25.944Z,82.82
2023-03-31T10:58:25.860Z,82.62
2023-03-31T10:59:25.866Z,82.93
2023-03-31T11:00:25.848Z,83.84
2023-03-31T11:01:25.873Z,81.54
2023-03-31T11:02:25.877Z,82.56
2023-03-31T11:03:25.985Z,83.37
2023-03-31T11:04:25.803Z,82.46
2023-03-31T11:05:25.802Z,82.15
2023-03-31T11:06:25.780Z,81.65
2023-03-31T11:07:25.773Z,82.01
2023-03-31T11:08:25.771Z,81.91
2023-03-31T11:09:25.727Z,81.37
2023-03-31T11:10:25.736Z,81.37
2023-03-31T11:11:25.724Z,80.62
2023-03-31T11:12:25.712Z,79.50
2023-03-31T11:13:25.696Z,79.23
2023-03-31T11:14:25.762Z,78.62
2023-03-31T11:15:25.679Z,78.68
2023-03-31T11:16:25.727Z,78.92
2023-03-31T11:17:25.760Z,80.04
2023-03-31T11:18:25.686Z,80.04
2023-03-31T11:19:25.645Z,80.41
2023-03-31T11:20:25.615Z,78.68
2023-03-31T11:21:25.673Z,78.62
2023-03-31T11:22:25.597Z,78.82
2023-03-31T11:23:25.572Z,79.53
2023-03-31T11:24:25.575Z,79.94
2023-03-31T11:25:25.568Z,79.23
2023-03-31T11:26:25.561Z,79.33
2023-03-31T11:27:25.664Z,79.63
2023-03-31T11:28:25.534Z,77.67
2023-03-31T11:29:25.698Z,78.38
2023-03-31T11:30:25.521Z,76.86
2023-03-31T11:31:25.508Z,76.72
2023-03-31T11:32:25.495Z,76.04
2023-03-31T11:33:25.465Z,76.25
2023-03-31T11:34:25.472Z,76.86
2023-03-31T11:35:25.445Z,76.25
2023-03-31T11:36:25.488Z,76.55
2023-03-31T11:37:25.427Z,76.14
2023-03-31T11:38:25.420Z,75.94
2023-03-31T11:39:25.505Z,75.94
2023-03-31T11:40:25.410Z,75.98
2023-03-31T11:41:25.394Z,76.68
2023-03-31T11:42:25.385Z,76.14
2023-03-31T11:43:25.368Z,76.75
2023-03-31T11:44:25.367Z,76.75
2023-03-31T11:45:25.366Z,76.34
2023-03-31T11:46:25.418Z,76.65
2023-03-31T11:47:25.405Z,76.25
2023-03-31T11:48:25.331Z,76.65
2023-03-31T11:49:25.304Z,76.79
2023-03-31T11:50:25.315Z,76.59
2023-03-31T11:51:25.277Z,77.09
2023-03-31T11:52:25.292Z,76.79
2023-03-31T11:53:25.283Z,77.29
2023-03-31T11:54:25.234Z,77.91
2023-03-31T11:55:25.245Z,78.21
2023-03-31T11:56:25.218Z,77.29
2023-03-31T11:57:25.317Z,77.50
2023-03-31T11:58:25.231Z,77.06
2023-03-31T11:59:25.209Z,76.65
2023-03-31T12:00:25.523Z,76.55
2023-03-31T12:01:25.189Z,77.16
2023-03-31T12:02:25.256Z,76.04
2023-03-31T12:03:25.218Z,76.04
2023-03-31T12:04:25.176Z,75.19
2023-03-31T12:05:25.156Z,75.19
2023-03-31T12:06:25.234Z,75.09
2023-03-31T12:07:25.100Z,75.29
2023-03-31T12:08:25.107Z,75.40
2023-03-31T12:09:25.153Z,75.40
2023-03-31T12:10:25.096Z,74.99
2023-03-31T12:11:25.056Z,74.18
2023-03-31T12:12:25.048Z,74.18
2023-03-31T12:13:25.077Z,74.18
2023-03-31T12:14:25.008Z,73.83
2023-03-31T12:15:25.015Z,72.72
2023-03-31T12:16:25.110Z,72.52
2023-03-31T12:17:25.036Z,71.91
2023-03-31T12:18:25.018Z,71.40
2023-03-31T12:19:24.980Z,71.16
2023-03-31T12:20:24.975Z,71.06
2023-03-31T12:21:24.992Z,70.45
2023-03-31T12:22:24.942Z,70.35
2023-03-31T12:23:24.935Z,69.43
2023-03-31T12:24:24.955Z,69.43
2023-03-31T12:25:24.990Z,69.54
2023-03-31T12:26:24.999Z,70.28
2023-03-31T12:27:24.920Z,70.21
2023-03-31T12:28:24.885Z,71.23
2023-03-31T12:29:24.849Z,71.36
2023-03-31T12:30:25.128Z,71.77
2023-03-31T12:31:25.015Z,71.57
2023-03-31T12:32:24.874Z,72.08
2023-03-31T12:33:24.894Z,71.87
2023-03-31T12:34:24.797Z,72.08
2023-03-31T12:35:24.804Z,72.08
2023-03-31T12:36:24.794Z,73.02
2023-03-31T12:37:24.787Z,76.56
2023-03-31T12:38:24.753Z,80.74
2023-03-31T12:39:24.751Z,84.49
2023-03-31T12:40:24.768Z,86.41
2023-03-31T12:41:24.724Z,87.47
2023-03-31T12:42:25.241Z,88.64
2023-03-31T12:43:24.705Z,89.97
2023-03-31T12:44:24.713Z,91.03
2023-03-31T12:45:24.701Z,93.07
2023-03-31T12:46:24.751Z,92.36
2023-03-31T12:47:24.759Z,92.56
2023-03-31T12:48:24.692Z,92.97
2023-03-31T12:49:24.621Z,92.97
2023-03-31T12:50:24.639Z,93.79
2023-03-31T12:51:24.668Z,93.69
2023-03-31T12:52:24.615Z,94.51
2023-03-31T12:53:24.651Z,94.10
2023-03-31T12:54:24.577Z,94.51
2023-03-31T12:55:24.562Z,94.40
2023-03-31T12:56:24.568Z,95.02
2023-03-31T12:57:24.627Z,94.30
2023-03-31T12:58:24.669Z,95.02
2023-03-31T12:59:24.550Z,94.71
2023-03-31T13:00:24.530Z,94.81
2023-03-31T13:01:24.651Z,95.07
2023-03-31T13:02:24.556Z,95.69
2023-03-31T13:03:24.578Z,95.79
2023-03-31T13:04:24.506Z,95.48
2023-03-31T13:05:24.533Z,96.00
2023-03-31T13:06:24.486Z,95.69
2023-03-31T13:07:28.878Z,96.20
2023-03-31T13:08:24.430Z,96.71
2023-03-31T13:09:24.549Z,97.02
2023-03-31T13:10:24.530Z,97.33
2023-03-31T13:11:24.373Z,97.27
2023-03-31T13:12:24.382Z,97.33
2023-03-31T13:13:24.370Z,97.57
2023-03-31T13:14:24.356Z,98.19
2023-03-31T13:15:24.363Z,98.70
2023-03-31T13:16:24.365Z,98.65
2023-03-31T13:17:24.350Z,98.35
2023-03-31T13:18:24.350Z,98.04
2023-03-31T13:19:24.321Z,98.35
2023-03-31T13:20:24.287Z,98.55
2023-03-31T13:21:24.291Z,98.75
2023-03-31T13:22:24.280Z,98.75
2023-03-31T13:23:24.242Z,98.86
2023-03-31T13:24:24.256Z,99.31
2023-03-31T13:25:24.260Z,99.41
2023-03-31T13:26:24.257Z,99.99
2023-03-31T13:27:24.255Z,99.99
2023-03-31T13:28:24.558Z,99.99
2023-03-31T13:29:24.188Z,99.99
2023-03-31T13:30:24.177Z,99.99
2023-03-31T13:31:24.317Z,99.99
2023-03-31T13:32:24.219Z,99.72
2023-03-31T13:33:24.395Z,99.99
2023-03-31T13:34:24.210Z,99.99
2023-03-31T13:35:24.276Z,99.99
2023-03-31T13:36:24.265Z,99.99
2023-03-31T13:37:24.112Z,99.52
2023-03-31T13:38:24.102Z,99.36
2023-03-31T13:39:24.184Z,98.79
2023-03-31T13:40:24.145Z,97.56
2023-03-31T13:41:24.268Z,98.18
2023-03-31T13:42:24.366Z,98.49
2023-03-31T13:43:24.128Z,98.79
2023-03-31T13:44:24.193Z,98.58
2023-03-31T13:45:24.226Z,98.79
2023-03-31T13:46:24.236Z,98.58
2023-03-31T13:47:24.347Z,98.99
2023-03-31T13:48:24.281Z,99.61
2023-03-31T13:49:24.267Z,99.82
2023-03-31T13:50:24.067Z,99.61
2023-03-31T13:51:24.224Z,99.30
2023-03-31T13:52:24.015Z,99.10
2023-03-31T13:53:24.400Z,99.61
2023-03-31T13:54:24.073Z,99.41
2023-03-31T13:55:24.069Z,97.87
2023-03-31T13:56:24.020Z,98.49
2023-03-31T13:57:24.090Z,98.99
2023-03-31T13:58:34.662Z,99.30
2023-03-31T13:59:23.949Z,99.30
2023-03-31T14:00:23.857Z,99.51
2023-03-31T14:01:24.085Z,99.61
2023-03-31T14:02:24.179Z,99.71
2023-03-31T14:03:24.300Z,99.61
2023-03-31T14:04:24.484Z,99.51
2023-03-31T14:05:24.075Z,99.71
2023-03-31T14:06:23.818Z,99.51
2023-03-31T14:07:23.821Z,99.10
2023-03-31T14:08:23.997Z,99.61
2023-03-31T14:09:23.736Z,99.41
2023-03-31T14:10:24.400Z,99.30
2023-03-31T14:11:23.865Z,99.30
2023-03-31T14:12:23.728Z,98.99
2023-03-31T14:13:23.878Z,96.13
2023-03-31T14:14:23.876Z,96.74
2023-03-31T14:15:23.901Z,97.25
2023-03-31T14:16:23.764Z,96.38
2023-03-31T14:17:23.877Z,96.69
2023-03-31T14:18:23.639Z,96.69
2023-03-31T14:19:23.647Z,96.69
2023-03-31T14:20:23.625Z,97.40
2023-03-31T14:21:23.632Z,98.02
2023-03-31T14:22:23.610Z,98.02
2023-03-31T14:23:23.625Z,98.33
2023-03-31T14:24:23.586Z,98.33
2023-03-31T14:25:23.580Z,98.83
2023-03-31T14:26:23.556Z,99.15
2023-03-31T14:27:23.569Z,98.63
2023-03-31T14:28:23.536Z,98.12
2023-03-31T14:29:23.534Z,98.53
2023-03-31T14:30:23.534Z,98.53
2023-03-31T14:31:23.583Z,98.43
2023-03-31T14:32:23.516Z,98.63
2023-03-31T14:33:23.478Z,97.40
2023-03-31T14:34:23.466Z,98.02
2023-03-31T14:35:23.476Z,97.61
2023-03-31T14:36:23.465Z,97.40
2023-03-31T14:37:23.433Z,97.91
2023-03-31T14:38:23.453Z,98.12
2023-03-31T14:39:23.406Z,98.12
2023-03-31T14:40:23.415Z,98.74
2023-03-31T14:41:23.385Z,98.74
2023-03-31T14:42:23.402Z,98.22
2023-03-31T14:43:23.408Z,98.12
2023-03-31T14:44:23.354Z,98.33
2023-03-31T14:45:23.397Z,98.74
2023-03-31T14:46:23.364Z,99.04
2023-03-31T14:47:23.380Z,97.91
2023-03-31T14:48:23.349Z,97.40
2023-03-31T14:49:23.342Z,97.30
2023-03-31T14:50:23.285Z,98.02
2023-03-31T14:51:23.283Z,97.91
2023-03-31T14:52:23.276Z,97.91
2023-03-31T14:53:23.306Z,97.30
2023-03-31T14:54:23.260Z,97.61
2023-03-31T14:55:25.209Z,97.40
2023-03-31T14:56:23.253Z,98.02
2023-03-31T14:57:23.329Z,98.33
2023-03-31T14:58:23.272Z,98.22
2023-03-31T14:59:23.209Z,98.43
2023-03-31T15:00:23.201Z,98.53
2023-03-31T15:01:23.294Z,98.63
2023-03-31T15:02:23.267Z,98.94
2023-03-31T15:03:23.154Z,99.04
2023-03-31T15:04:31.810Z,99.15
2023-03-31T15:05:23.182Z,99.15
2023-03-31T15:06:23.123Z,98.53
2023-03-31T15:07:23.130Z,98.43
2023-03-31T15:08:23.117Z,98.43
2023-03-31T15:09:23.093Z,97.34
2023-03-31T15:10:23.084Z,97.34
2023-03-31T15:11:23.066Z,96.94
2023-03-31T15:12:23.090Z,97.65
2023-03-31T15:13:23.046Z,97.86
2023-03-31T15:14:23.035Z,98.02
2023-03-31T15:15:23.013Z,98.43
2023-03-31T15:16:23.089Z,98.43
2023-03-31T15:17:23.017Z,98.16
2023-03-31T15:18:22.976Z,98.78
2023-03-31T15:19:23.011Z,98.78
2023-03-31T15:20:22.980Z,98.99
2023-03-31T15:21:22.946Z,99.15
2023-03-31T15:22:22.937Z,99.25
2023-03-31T15:23:22.948Z,98.74
2023-03-31T15:24:22.914Z,98.53
2023-03-31T15:25:23.799Z,98.33
2023-03-31T15:26:27.945Z,98.27
2023-03-31T15:27:30.000Z,97.91
2023-03-31T15:28:22.907Z,97.75
2023-03-31T15:29:22.899Z,97.96
2023-03-31T15:30:22.834Z,97.75
2023-03-31T15:31:22.902Z,97.86
2023-03-31T15:32:23.068Z,98.12
2023-03-31T15:33:22.987Z,98.43
2023-03-31T15:34:23.149Z,98.33
2023-03-31T15:35:22.817Z,97.40
2023-03-31T15:36:22.867Z,97.61
2023-03-31T15:37:22.791Z,97.75
2023-03-31T15:38:22.777Z,97.86
2023-03-31T15:39:22.753Z,98.16
2023-03-31T15:40:22.740Z,98.47
2023-03-31T15:41:22.996Z,98.16
2023-03-31T15:42:22.720Z,98.07
2023-03-31T15:43:25.766Z,98.47
2023-03-31T15:44:22.891Z,98.68
2023-03-31T15:45:22.681Z,98.27
2023-03-31T15:46:22.812Z,98.27
2023-03-31T15:47:22.775Z,98.33
2023-03-31T15:48:22.757Z,98.12
2023-03-31T15:49:22.662Z,98.07
2023-03-31T15:50:22.706Z,97.14
2023-03-31T15:51:22.606Z,95.91
2023-03-31T15:52:22.588Z,96.42
2023-03-31T15:53:23.296Z,96.73
2023-03-31T15:54:22.837Z,97.04
2023-03-31T15:55:22.599Z,97.04
2023-03-31T15:56:22.546Z,97.04
2023-03-31T15:57:22.636Z,96.94
2023-03-31T15:58:22.521Z,97.24
2023-03-31T15:59:25.110Z,97.71
2023-03-31T16:00:22.528Z,96.99
2023-03-31T16:01:22.594Z,96.53
2023-03-31T16:02:22.538Z,95.66
2023-03-31T16:03:24.038Z,96.89
2023-03-31T16:04:22.519Z,95.87
2023-03-31T16:05:26.837Z,96.38
2023-03-31T16:06:22.465Z,96.53
2023-03-31T16:07:22.472Z,96.94
2023-03-31T16:08:22.438Z,96.73
2023-03-31T16:09:22.434Z,96.73
2023-03-31T16:10:22.439Z,96.58
2023-03-31T16:11:22.439Z,97.20
2023-03-31T16:12:22.406Z,96.79
2023-03-31T16:13:22.370Z,96.63
2023-03-31T16:14:22.404Z,97.20
2023-03-31T16:15:24.038Z,96.99
2023-03-31T16:16:22.429Z,97.40
2023-03-31T16:17:22.421Z,97.50
2023-03-31T16:18:22.340Z,97.09
2023-03-31T16:19:22.326Z,96.99
2023-03-31T16:20:22.294Z,97.09
2023-03-31T16:21:22.280Z,97.09
2023-03-31T16:22:22.270Z,96.99
2023-03-31T16:23:22.293Z,97.09
2023-03-31T16:24:22.271Z,96.99
2023-03-31T16:25:22.247Z,97.30
2023-03-31T16:26:22.259Z,96.89
2023-03-31T16:27:22.233Z,96.79
2023-03-31T16:28:22.237Z,96.48
2023-03-31T16:29:22.297Z,95.97
2023-03-31T16:30:22.184Z,96.48
2023-03-31T16:31:22.210Z,96.38
2023-03-31T16:32:22.224Z,96.79
2023-03-31T16:33:22.182Z,97.09
2023-03-31T16:34:22.172Z,96.48
2023-03-31T16:35:22.193Z,96.12
2023-03-31T16:36:22.229Z,96.17
2023-03-31T16:37:22.114Z,96.48
2023-03-31T16:38:22.125Z,96.58
2023-03-31T16:39:22.083Z,96.58
2023-03-31T16:40:22.097Z,96.17
2023-03-31T16:41:22.143Z,96.17
2023-03-31T16:42:22.140Z,96.17
2023-03-31T16:43:22.038Z,96.48
2023-03-31T16:44:22.025Z,96.79
2023-03-31T16:45:22.073Z,96.89
2023-03-31T16:46:22.042Z,96.89
2023-03-31T16:47:34.681Z,96.83
2023-03-31T16:48:22.007Z,96.83
2023-03-31T16:49:21.999Z,96.99
2023-03-31T16:50:21.994Z,97.24
2023-03-31T16:51:21.954Z,97.20
2023-03-31T16:52:21.951Z,96.89